sensor_id;sensor_type;location;lat;lon;timestamp;P1;durP1;ratioP1;P2;durP2;ratioP2
13475;SDS011;6810;63.824;20.288;2023-04-25T00:01:29;1.97;;;0.70;;
13475;SDS011;6810;63.824;20.288;2023-04-25T00:04:16;0.83;;;0.70;;
13475;SDS011;6810;63.824;20.288;2023-04-25T00:07:03;0.80;;;0.80;;
13475;SDS011;6810;63.824;20.288;2023-04-25T00:09:50;1.23;;;1.00;;
13475;SDS011;6810;63.824;20.288;2023-04-25T00:12:37;1.33;;;0.83;;
13475;SDS011;6810;63.824;20.288;2023-04-25T00:15:24;1.87;;;0.90;;
13475;SDS011;6810;63.824;20.288;2023-04-25T00:18:11;0.90;;;0.90;;
13475;SDS011;6810;63.824;20.288;2023-04-25T00:20:58;1.37;;;1.00;;
13475;SDS011;6810;63.824;20.288;2023-04-25T00:23:46;1.30;;;1.00;;
13475;SDS011;6810;63.824;20.288;2023-04-25T00:26:33;1.10;;;1.00;;
13475;SDS011;6810;63.824;20.288;2023-04-25T00:29:21;0.93;;;0.70;;
13475;SDS011;6810;63.824;20.288;2023-04-25T00:32:08;1.00;;;1.00;;
13475;SDS011;6810;63.824;20.288;2023-04-25T00:34:56;2.10;;;1.00;;
13475;SDS011;6810;63.824;20.288;2023-04-25T00:37:43;1.20;;;0.73;;
13475;SDS011;6810;63.824;20.288;2023-04-25T00:40:30;1.70;;;1.10;;
13475;SDS011;6810;63.824;20.288;2023-04-25T00:43:17;1.87;;;1.10;;
13475;SDS011;6810;63.824;20.288;2023-04-25T00:46:04;1.87;;;1.20;;
13475;SDS011;6810;63.824;20.288;2023-04-25T00:48:51;1.30;;;1.20;;
13475;SDS011;6810;63.824;20.288;2023-04-25T00:51:38;1.37;;;1.23;;
13475;SDS011;6810;63.824;20.288;2023-04-25T00:54:25;1.03;;;1.00;;
13475;SDS011;6810;63.824;20.288;2023-04-25T00:57:12;2.03;;;1.20;;
13475;SDS011;6810;63.824;20.288;2023-04-25T00:59:59;0.97;;;0.90;;
13475;SDS011;6810;63.824;20.288;2023-04-25T01:02:47;1.50;;;1.20;;
13475;SDS011;6810;63.824;20.288;2023-04-25T01:05:35;2.73;;;1.23;;
13475;SDS011;6810;63.824;20.288;2023-04-25T01:08:23;1.40;;;1.30;;
13475;SDS011;6810;63.824;20.288;2023-04-25T01:11:11;1.20;;;1.10;;
13475;SDS011;6810;63.824;20.288;2023-04-25T01:13:58;2.93;;;1.33;;
13475;SDS011;6810;63.824;20.288;2023-04-25T01:16:45;1.47;;;1.17;;
13475;SDS011;6810;63.824;20.288;2023-04-25T01:19:33;1.43;;;1.30;;
13475;SDS011;6810;63.824;20.288;2023-04-25T01:22:20;1.37;;;1.20;;
13475;SDS011;6810;63.824;20.288;2023-04-25T01:25:08;1.47;;;1.37;;
13475;SDS011;6810;63.824;20.288;2023-04-25T01:27:56;1.87;;;1.47;;
13475;SDS011;6810;63.824;20.288;2023-04-25T01:30:44;1.90;;;1.40;;
13475;SDS011;6810;63.824;20.288;2023-04-25T01:33:32;2.17;;;1.30;;
13475;SDS011;6810;63.824;20.288;2023-04-25T01:36:20;1.43;;;1.33;;
13475;SDS011;6810;63.824;20.288;2023-04-25T01:39:08;1.67;;;1.37;;
13475;SDS011;6810;63.824;20.288;2023-04-25T01:41:55;1.27;;;1.17;;
13475;SDS011;6810;63.824;20.288;2023-04-25T01:44:43;1.53;;;1.27;;
13475;SDS011;6810;63.824;20.288;2023-04-25T01:47:30;1.90;;;1.27;;
13475;SDS011;6810;63.824;20.288;2023-04-25T01:50:17;1.80;;;1.60;;
13475;SDS011;6810;63.824;20.288;2023-04-25T01:53:05;2.13;;;1.47;;
13475;SDS011;6810;63.824;20.288;2023-04-25T01:55:53;1.20;;;1.10;;
13475;SDS011;6810;63.824;20.288;2023-04-25T01:58:40;1.70;;;1.33;;
13475;SDS011;6810;63.824;20.288;2023-04-25T02:01:42;1.37;;;1.30;;
13475;SDS011;6810;63.824;20.288;2023-04-25T02:04:31;1.50;;;1.40;;
13475;SDS011;6810;63.824;20.288;2023-04-25T02:07:21;1.50;;;1.40;;
13475;SDS011;6810;63.824;20.288;2023-04-25T02:10:08;2.97;;;1.57;;
13475;SDS011;6810;63.824;20.288;2023-04-25T02:13:12;2.10;;;1.57;;
13475;SDS011;6810;63.824;20.288;2023-04-25T02:16:03;1.37;;;1.27;;
13475;SDS011;6810;63.824;20.288;2023-04-25T02:18:50;2.07;;;1.40;;
13475;SDS011;6810;63.824;20.288;2023-04-25T02:21:37;1.63;;;1.50;;
13475;SDS011;6810;63.824;20.288;2023-04-25T02:24:24;2.40;;;1.50;;
13475;SDS011;6810;63.824;20.288;2023-04-25T02:27:11;2.53;;;1.53;;
13475;SDS011;6810;63.824;20.288;2023-04-25T02:29:58;3.43;;;1.50;;
13475;SDS011;6810;63.824;20.288;2023-04-25T02:32:45;1.87;;;1.77;;
13475;SDS011;6810;63.824;20.288;2023-04-25T02:35:35;3.03;;;1.40;;
13475;SDS011;6810;63.824;20.288;2023-04-25T02:38:21;1.50;;;1.33;;
13475;SDS011;6810;63.824;20.288;2023-04-25T02:41:08;3.00;;;1.70;;
13475;SDS011;6810;63.824;20.288;2023-04-25T02:43:56;1.90;;;1.40;;
13475;SDS011;6810;63.824;20.288;2023-04-25T02:46:44;2.83;;;1.67;;
13475;SDS011;6810;63.824;20.288;2023-04-25T02:49:31;2.27;;;1.90;;
13475;SDS011;6810;63.824;20.288;2023-04-25T02:52:18;1.77;;;1.50;;
13475;SDS011;6810;63.824;20.288;2023-04-25T02:55:12;2.23;;;1.40;;
13475;SDS011;6810;63.824;20.288;2023-04-25T02:58:03;1.50;;;1.40;;
13475;SDS011;6810;63.824;20.288;2023-04-25T03:00:52;2.00;;;1.60;;
13475;SDS011;6810;63.824;20.288;2023-04-25T03:03:39;2.30;;;1.30;;
13475;SDS011;6810;63.824;20.288;2023-04-25T03:06:26;2.63;;;1.40;;
13475;SDS011;6810;63.824;20.288;2023-04-25T03:09:13;1.67;;;1.57;;
13475;SDS011;6810;63.824;20.288;2023-04-25T03:12:01;1.50;;;1.40;;
13475;SDS011;6810;63.824;20.288;2023-04-25T03:14:49;2.27;;;1.50;;
13475;SDS011;6810;63.824;20.288;2023-04-25T03:17:36;1.93;;;1.50;;
13475;SDS011;6810;63.824;20.288;2023-04-25T03:20:23;1.77;;;1.37;;
13475;SDS011;6810;63.824;20.288;2023-04-25T03:23:10;1.73;;;1.60;;
13475;SDS011;6810;63.824;20.288;2023-04-25T03:25:57;5.63;;;2.00;;
13475;SDS011;6810;63.824;20.288;2023-04-25T03:28:44;2.23;;;1.90;;
13475;SDS011;6810;63.824;20.288;2023-04-25T03:31:32;3.33;;;1.70;;
13475;SDS011;6810;63.824;20.288;2023-04-25T03:34:19;3.20;;;1.90;;
13475;SDS011;6810;63.824;20.288;2023-04-25T03:37:06;4.00;;;1.87;;
13475;SDS011;6810;63.824;20.288;2023-04-25T03:39:53;1.80;;;1.70;;
13475;SDS011;6810;63.824;20.288;2023-04-25T03:43:07;7.57;;;1.97;;
13475;SDS011;6810;63.824;20.288;2023-04-25T03:46:00;3.77;;;1.83;;
13475;SDS011;6810;63.824;20.288;2023-04-25T03:48:48;2.30;;;1.90;;
13475;SDS011;6810;63.824;20.288;2023-04-25T03:51:52;2.20;;;1.80;;
13475;SDS011;6810;63.824;20.288;2023-04-25T03:54:40;2.77;;;1.73;;
13475;SDS011;6810;63.824;20.288;2023-04-25T03:57:27;1.97;;;1.70;;
13475;SDS011;6810;63.824;20.288;2023-04-25T04:00:15;3.10;;;2.03;;
13475;SDS011;6810;63.824;20.288;2023-04-25T04:03:02;2.20;;;1.90;;
13475;SDS011;6810;63.824;20.288;2023-04-25T04:05:50;2.23;;;2.03;;
13475;SDS011;6810;63.824;20.288;2023-04-25T04:08:43;2.07;;;1.77;;
13475;SDS011;6810;63.824;20.288;2023-04-25T04:11:34;2.30;;;2.10;;
13475;SDS011;6810;63.824;20.288;2023-04-25T04:14:22;2.87;;;1.97;;
13475;SDS011;6810;63.824;20.288;2023-04-25T04:17:09;3.33;;;1.83;;
13475;SDS011;6810;63.824;20.288;2023-04-25T04:19:57;2.37;;;2.00;;
13475;SDS011;6810;63.824;20.288;2023-04-25T04:22:44;2.00;;;1.80;;
13475;SDS011;6810;63.824;20.288;2023-04-25T04:25:31;3.20;;;2.00;;
13475;SDS011;6810;63.824;20.288;2023-04-25T04:28:30;2.67;;;1.80;;
13475;SDS011;6810;63.824;20.288;2023-04-25T04:31:43;3.27;;;1.90;;
13475;SDS011;6810;63.824;20.288;2023-04-25T04:34:32;3.83;;;1.57;;
13475;SDS011;6810;63.824;20.288;2023-04-25T04:37:20;2.73;;;1.97;;
13475;SDS011;6810;63.824;20.288;2023-04-25T04:40:10;3.63;;;1.67;;
13475;SDS011;6810;63.824;20.288;2023-04-25T04:43:16;7.03;;;2.10;;
13475;SDS011;6810;63.824;20.288;2023-04-25T04:46:06;2.43;;;1.57;;
13475;SDS011;6810;63.824;20.288;2023-04-25T04:49:10;3.00;;;1.60;;
13475;SDS011;6810;63.824;20.288;2023-04-25T04:52:16;3.80;;;1.83;;
13475;SDS011;6810;63.824;20.288;2023-04-25T04:55:23;2.50;;;1.70;;
13475;SDS011;6810;63.824;20.288;2023-04-25T04:58:22;4.10;;;1.83;;
13475;SDS011;6810;63.824;20.288;2023-04-25T05:01:21;1.60;;;1.33;;
13475;SDS011;6810;63.824;20.288;2023-04-25T05:04:23;3.90;;;1.70;;
13475;SDS011;6810;63.824;20.288;2023-04-25T05:07:19;4.57;;;2.10;;
13475;SDS011;6810;63.824;20.288;2023-04-25T05:10:19;3.60;;;1.63;;
13475;SDS011;6810;63.824;20.288;2023-04-25T05:13:26;4.10;;;1.90;;
13475;SDS011;6810;63.824;20.288;2023-04-25T05:16:33;1.70;;;1.60;;
13475;SDS011;6810;63.824;20.288;2023-04-25T05:19:45;3.70;;;1.77;;
13475;SDS011;6810;63.824;20.288;2023-04-25T05:22:51;3.67;;;1.80;;
13475;SDS011;6810;63.824;20.288;2023-04-25T05:25:44;3.20;;;1.60;;
13475;SDS011;6810;63.824;20.288;2023-04-25T05:28:46;3.40;;;1.93;;
13475;SDS011;6810;63.824;20.288;2023-04-25T05:31:41;3.47;;;1.40;;
13475;SDS011;6810;63.824;20.288;2023-04-25T05:34:29;4.83;;;1.77;;
13475;SDS011;6810;63.824;20.288;2023-04-25T05:37:22;1.70;;;1.60;;
13475;SDS011;6810;63.824;20.288;2023-04-25T05:40:12;1.70;;;1.60;;
13475;SDS011;6810;63.824;20.288;2023-04-25T05:43:19;4.80;;;1.70;;
13475;SDS011;6810;63.824;20.288;2023-04-25T05:46:19;1.70;;;1.37;;
13475;SDS011;6810;63.824;20.288;2023-04-25T05:49:45;3.50;;;1.60;;
13475;SDS011;6810;63.824;20.288;2023-04-25T05:52:50;2.83;;;1.53;;
13475;SDS011;6810;63.824;20.288;2023-04-25T05:55:40;2.13;;;1.80;;
13475;SDS011;6810;63.824;20.288;2023-04-25T05:58:28;2.57;;;1.73;;
13475;SDS011;6810;63.824;20.288;2023-04-25T06:01:15;4.30;;;2.37;;
13475;SDS011;6810;63.824;20.288;2023-04-25T06:04:02;2.07;;;1.60;;
13475;SDS011;6810;63.824;20.288;2023-04-25T06:06:49;4.33;;;1.60;;
13475;SDS011;6810;63.824;20.288;2023-04-25T06:09:36;2.53;;;1.70;;
13475;SDS011;6810;63.824;20.288;2023-04-25T06:12:24;2.43;;;1.73;;
13475;SDS011;6810;63.824;20.288;2023-04-25T06:15:14;2.37;;;1.80;;
13475;SDS011;6810;63.824;20.288;2023-04-25T06:18:01;3.43;;;1.90;;
13475;SDS011;6810;63.824;20.288;2023-04-25T06:20:48;2.83;;;1.53;;
13475;SDS011;6810;63.824;20.288;2023-04-25T06:23:36;4.73;;;1.70;;
13475;SDS011;6810;63.824;20.288;2023-04-25T06:26:23;4.93;;;1.53;;
13475;SDS011;6810;63.824;20.288;2023-04-25T06:29:10;1.33;;;1.23;;
13475;SDS011;6810;63.824;20.288;2023-04-25T06:31:57;2.10;;;1.53;;
13475;SDS011;6810;63.824;20.288;2023-04-25T06:34:44;2.10;;;1.60;;
13475;SDS011;6810;63.824;20.288;2023-04-25T06:37:32;4.37;;;1.60;;
13475;SDS011;6810;63.824;20.288;2023-04-25T06:40:21;4.03;;;1.90;;
13475;SDS011;6810;63.824;20.288;2023-04-25T06:43:09;4.43;;;1.50;;
13475;SDS011;6810;63.824;20.288;2023-04-25T06:46:15;3.70;;;1.20;;
13475;SDS011;6810;63.824;20.288;2023-04-25T06:49:03;3.70;;;1.60;;
13475;SDS011;6810;63.824;20.288;2023-04-25T06:51:50;2.30;;;1.37;;
13475;SDS011;6810;63.824;20.288;2023-04-25T06:54:38;1.57;;;1.37;;
13475;SDS011;6810;63.824;20.288;2023-04-25T06:57:40;7.47;;;1.60;;
13475;SDS011;6810;63.824;20.288;2023-04-25T07:01:06;4.30;;;1.37;;
13475;SDS011;6810;63.824;20.288;2023-04-25T07:03:54;2.60;;;1.47;;
13475;SDS011;6810;63.824;20.288;2023-04-25T07:06:50;1.50;;;1.30;;
13475;SDS011;6810;63.824;20.288;2023-04-25T12:01:49;4.50;;;2.97;;
13475;SDS011;6810;63.824;20.288;2023-04-25T12:04:23;5.20;;;3.13;;
13475;SDS011;6810;63.824;20.288;2023-04-25T12:06:52;5.20;;;3.00;;
13475;SDS011;6810;63.824;20.288;2023-04-25T12:09:31;4.47;;;2.90;;
13475;SDS011;6810;63.824;20.288;2023-04-25T12:12:19;5.40;;;3.50;;
13475;SDS011;6810;63.824;20.288;2023-04-25T12:15:09;6.07;;;3.27;;
13475;SDS011;6810;63.824;20.288;2023-04-25T12:17:57;6.33;;;3.70;;
13475;SDS011;6810;63.824;20.288;2023-04-25T12:20:44;5.57;;;3.37;;
13475;SDS011;6810;63.824;20.288;2023-04-25T12:23:31;5.37;;;3.50;;
13475;SDS011;6810;63.824;20.288;2023-04-25T12:26:18;6.10;;;3.30;;
13475;SDS011;6810;63.824;20.288;2023-04-25T12:29:14;5.53;;;3.43;;
13475;SDS011;6810;63.824;20.288;2023-04-25T12:32:05;6.17;;;3.63;;
13475;SDS011;6810;63.824;20.288;2023-04-25T12:34:52;6.17;;;3.47;;
13475;SDS011;6810;63.824;20.288;2023-04-25T12:37:39;6.10;;;3.43;;
13475;SDS011;6810;63.824;20.288;2023-04-25T12:40:26;5.87;;;3.67;;
13475;SDS011;6810;63.824;20.288;2023-04-25T12:43:13;6.17;;;3.33;;
13475;SDS011;6810;63.824;20.288;2023-04-25T12:46:00;6.40;;;3.70;;
13475;SDS011;6810;63.824;20.288;2023-04-25T12:48:48;6.20;;;3.40;;
13475;SDS011;6810;63.824;20.288;2023-04-25T12:51:44;7.10;;;3.53;;
13475;SDS011;6810;63.824;20.288;2023-04-25T12:54:31;6.53;;;3.90;;
13475;SDS011;6810;63.824;20.288;2023-04-25T12:57:18;6.00;;;3.30;;
13475;SDS011;6810;63.824;20.288;2023-04-25T13:00:05;5.60;;;3.40;;
13475;SDS011;6810;63.824;20.288;2023-04-25T13:02:53;7.10;;;3.77;;
13475;SDS011;6810;63.824;20.288;2023-04-25T13:05:40;6.20;;;3.20;;
13475;SDS011;6810;63.824;20.288;2023-04-25T13:08:27;5.47;;;3.07;;
13475;SDS011;6810;63.824;20.288;2023-04-25T13:11:15;5.90;;;3.50;;
13475;SDS011;6810;63.824;20.288;2023-04-25T13:14:02;4.90;;;3.10;;
13475;SDS011;6810;63.824;20.288;2023-04-25T13:16:49;6.23;;;3.33;;
13475;SDS011;6810;63.824;20.288;2023-04-25T13:19:36;3.87;;;2.80;;
13475;SDS011;6810;63.824;20.288;2023-04-25T13:22:23;5.20;;;2.87;;
13475;SDS011;6810;63.824;20.288;2023-04-25T13:25:10;4.07;;;2.63;;
13475;SDS011;6810;63.824;20.288;2023-04-25T13:27:57;4.80;;;2.67;;
13475;SDS011;6810;63.824;20.288;2023-04-25T13:30:44;2.63;;;2.17;;
13475;SDS011;6810;63.824;20.288;2023-04-25T13:33:32;3.57;;;2.47;;
13475;SDS011;6810;63.824;20.288;2023-04-25T13:36:19;2.67;;;1.80;;
13475;SDS011;6810;63.824;20.288;2023-04-25T13:39:06;3.20;;;1.97;;
13475;SDS011;6810;63.824;20.288;2023-04-25T13:41:53;3.33;;;2.17;;
13475;SDS011;6810;63.824;20.288;2023-04-25T13:44:40;3.27;;;2.30;;
13475;SDS011;6810;63.824;20.288;2023-04-25T13:47:27;4.27;;;2.23;;
13475;SDS011;6810;63.824;20.288;2023-04-25T13:50:14;3.37;;;2.20;;
13475;SDS011;6810;63.824;20.288;2023-04-25T13:53:01;3.77;;;2.30;;
13475;SDS011;6810;63.824;20.288;2023-04-25T13:55:49;4.43;;;2.43;;
13475;SDS011;6810;63.824;20.288;2023-04-25T13:58:36;3.30;;;2.20;;
13475;SDS011;6810;63.824;20.288;2023-04-25T14:01:23;2.97;;;1.73;;
13475;SDS011;6810;63.824;20.288;2023-04-25T14:04:11;3.47;;;1.90;;
13475;SDS011;6810;63.824;20.288;2023-04-25T14:06:58;3.00;;;2.13;;
13475;SDS011;6810;63.824;20.288;2023-04-25T14:09:45;2.53;;;1.90;;
13475;SDS011;6810;63.824;20.288;2023-04-25T14:12:32;2.63;;;2.23;;
13475;SDS011;6810;63.824;20.288;2023-04-25T14:15:19;3.77;;;2.27;;
13475;SDS011;6810;63.824;20.288;2023-04-25T14:18:06;3.07;;;2.10;;
13475;SDS011;6810;63.824;20.288;2023-04-25T14:20:53;3.03;;;2.03;;
13475;SDS011;6810;63.824;20.288;2023-04-25T14:23:40;3.40;;;2.33;;
13475;SDS011;6810;63.824;20.288;2023-04-25T14:26:27;3.27;;;2.20;;
13475;SDS011;6810;63.824;20.288;2023-04-25T14:29:14;3.43;;;2.27;;
13475;SDS011;6810;63.824;20.288;2023-04-25T14:32:01;3.20;;;2.30;;
13475;SDS011;6810;63.824;20.288;2023-04-25T14:34:48;4.23;;;2.23;;
13475;SDS011;6810;63.824;20.288;2023-04-25T14:37:35;4.20;;;2.47;;
13475;SDS011;6810;63.824;20.288;2023-04-25T14:40:22;3.90;;;1.93;;
13475;SDS011;6810;63.824;20.288;2023-04-25T14:43:09;3.70;;;2.13;;
13475;SDS011;6810;63.824;20.288;2023-04-25T14:45:56;3.30;;;2.10;;
13475;SDS011;6810;63.824;20.288;2023-04-25T14:48:43;2.47;;;1.80;;
13475;SDS011;6810;63.824;20.288;2023-04-25T14:51:30;2.47;;;1.60;;
13475;SDS011;6810;63.824;20.288;2023-04-25T14:54:17;2.90;;;1.90;;
13475;SDS011;6810;63.824;20.288;2023-04-25T14:57:04;2.67;;;1.67;;
13475;SDS011;6810;63.824;20.288;2023-04-25T14:59:51;2.27;;;1.40;;
13475;SDS011;6810;63.824;20.288;2023-04-25T15:02:38;2.63;;;1.80;;
13475;SDS011;6810;63.824;20.288;2023-04-25T15:05:26;2.57;;;1.43;;
13475;SDS011;6810;63.824;20.288;2023-04-25T15:08:12;2.70;;;1.80;;
13475;SDS011;6810;63.824;20.288;2023-04-25T15:10:59;2.50;;;1.73;;
13475;SDS011;6810;63.824;20.288;2023-04-25T15:13:47;3.60;;;1.70;;
13475;SDS011;6810;63.824;20.288;2023-04-25T15:16:33;2.80;;;1.40;;
13475;SDS011;6810;63.824;20.288;2023-04-25T15:19:21;1.93;;;1.37;;
13475;SDS011;6810;63.824;20.288;2023-04-25T15:22:08;2.50;;;1.50;;
13475;SDS011;6810;63.824;20.288;2023-04-25T15:24:55;2.30;;;1.43;;
13475;SDS011;6810;63.824;20.288;2023-04-25T15:27:42;2.40;;;1.50;;
13475;SDS011;6810;63.824;20.288;2023-04-25T15:30:28;1.60;;;1.00;;
13475;SDS011;6810;63.824;20.288;2023-04-25T15:33:15;2.33;;;1.00;;
13475;SDS011;6810;63.824;20.288;2023-04-25T15:36:02;1.90;;;1.20;;
13475;SDS011;6810;63.824;20.288;2023-04-25T15:38:49;2.17;;;1.07;;
13475;SDS011;6810;63.824;20.288;2023-04-25T15:41:38;1.93;;;1.30;;
13475;SDS011;6810;63.824;20.288;2023-04-25T15:44:25;1.57;;;1.30;;
13475;SDS011;6810;63.824;20.288;2023-04-25T15:47:12;2.70;;;1.27;;
13475;SDS011;6810;63.824;20.288;2023-04-25T15:49:59;2.23;;;1.27;;
13475;SDS011;6810;63.824;20.288;2023-04-25T15:52:47;1.47;;;1.10;;
13475;SDS011;6810;63.824;20.288;2023-04-25T15:55:34;2.43;;;1.10;;
13475;SDS011;6810;63.824;20.288;2023-04-25T15:58:21;1.23;;;0.90;;
13475;SDS011;6810;63.824;20.288;2023-04-25T16:01:09;2.10;;;1.07;;
13475;SDS011;6810;63.824;20.288;2023-04-25T16:03:57;1.50;;;1.13;;
13475;SDS011;6810;63.824;20.288;2023-04-25T16:06:44;2.20;;;1.10;;
13475;SDS011;6810;63.824;20.288;2023-04-25T16:09:31;1.23;;;1.00;;
13475;SDS011;6810;63.824;20.288;2023-04-25T16:12:18;1.80;;;1.20;;
13475;SDS011;6810;63.824;20.288;2023-04-25T16:15:05;1.47;;;0.97;;
13475;SDS011;6810;63.824;20.288;2023-04-25T16:17:53;1.50;;;1.07;;
13475;SDS011;6810;63.824;20.288;2023-04-25T16:20:40;1.43;;;1.20;;
13475;SDS011;6810;63.824;20.288;2023-04-25T16:23:27;1.10;;;1.00;;
13475;SDS011;6810;63.824;20.288;2023-04-25T16:26:14;1.33;;;1.13;;
13475;SDS011;6810;63.824;20.288;2023-04-25T16:29:04;1.87;;;1.10;;
13475;SDS011;6810;63.824;20.288;2023-04-25T16:31:51;1.47;;;0.83;;
13475;SDS011;6810;63.824;20.288;2023-04-25T16:34:38;1.23;;;0.80;;
13475;SDS011;6810;63.824;20.288;2023-04-25T16:37:25;1.50;;;1.00;;
13475;SDS011;6810;63.824;20.288;2023-04-25T16:40:12;1.03;;;0.93;;
13475;SDS011;6810;63.824;20.288;2023-04-25T16:42:59;1.30;;;0.90;;
13475;SDS011;6810;63.824;20.288;2023-04-25T16:45:46;1.23;;;0.90;;
13475;SDS011;6810;63.824;20.288;2023-04-25T16:48:33;1.33;;;0.87;;
13475;SDS011;6810;63.824;20.288;2023-04-25T16:51:20;1.33;;;0.93;;
13475;SDS011;6810;63.824;20.288;2023-04-25T16:54:07;1.70;;;1.20;;
13475;SDS011;6810;63.824;20.288;2023-04-25T16:56:53;1.13;;;1.03;;
13475;SDS011;6810;63.824;20.288;2023-04-25T16:59:40;1.10;;;0.80;;
13475;SDS011;6810;63.824;20.288;2023-04-25T17:02:27;2.63;;;0.90;;
13475;SDS011;6810;63.824;20.288;2023-04-25T17:05:14;1.60;;;1.03;;
13475;SDS011;6810;63.824;20.288;2023-04-25T17:08:01;1.23;;;0.93;;
13475;SDS011;6810;63.824;20.288;2023-04-25T17:10:49;2.00;;;1.53;;
13475;SDS011;6810;63.824;20.288;2023-04-25T17:13:36;1.27;;;1.10;;
13475;SDS011;6810;63.824;20.288;2023-04-25T17:16:27;1.13;;;1.03;;
13475;SDS011;6810;63.824;20.288;2023-04-25T17:19:20;1.20;;;0.93;;
13475;SDS011;6810;63.824;20.288;2023-04-25T17:22:07;1.30;;;1.10;;
13475;SDS011;6810;63.824;20.288;2023-04-25T17:24:54;2.13;;;1.33;;
13475;SDS011;6810;63.824;20.288;2023-04-25T17:27:41;1.67;;;1.27;;
13475;SDS011;6810;63.824;20.288;2023-04-25T17:30:28;1.87;;;1.30;;
13475;SDS011;6810;63.824;20.288;2023-04-25T17:33:16;1.50;;;1.20;;
13475;SDS011;6810;63.824;20.288;2023-04-25T17:36:02;2.23;;;1.10;;
13475;SDS011;6810;63.824;20.288;2023-04-25T17:38:50;1.93;;;1.53;;
13475;SDS011;6810;63.824;20.288;2023-04-25T17:41:37;2.23;;;1.60;;
13475;SDS011;6810;63.824;20.288;2023-04-25T17:44:26;1.47;;;1.10;;
13475;SDS011;6810;63.824;20.288;2023-04-25T17:47:13;1.80;;;1.30;;
13475;SDS011;6810;63.824;20.288;2023-04-25T17:50:00;2.23;;;1.20;;
13475;SDS011;6810;63.824;20.288;2023-04-25T17:52:47;3.50;;;1.30;;
13475;SDS011;6810;63.824;20.288;2023-04-25T17:55:34;1.40;;;1.20;;
13475;SDS011;6810;63.824;20.288;2023-04-25T17:58:21;1.87;;;1.10;;
13475;SDS011;6810;63.824;20.288;2023-04-25T18:01:08;1.70;;;1.07;;
13475;SDS011;6810;63.824;20.288;2023-04-25T18:03:55;1.37;;;1.00;;
13475;SDS011;6810;63.824;20.288;2023-04-25T18:06:42;1.67;;;1.23;;
13475;SDS011;6810;63.824;20.288;2023-04-25T18:09:29;1.60;;;1.20;;
13475;SDS011;6810;63.824;20.288;2023-04-25T18:12:16;1.47;;;1.00;;
13475;SDS011;6810;63.824;20.288;2023-04-25T18:15:03;1.27;;;1.00;;
13475;SDS011;6810;63.824;20.288;2023-04-25T18:17:51;1.90;;;1.10;;
13475;SDS011;6810;63.824;20.288;2023-04-25T18:20:38;1.83;;;1.13;;
13475;SDS011;6810;63.824;20.288;2023-04-25T18:23:25;1.57;;;1.00;;
13475;SDS011;6810;63.824;20.288;2023-04-25T18:26:12;1.27;;;0.80;;
13475;SDS011;6810;63.824;20.288;2023-04-25T18:28:59;1.33;;;1.00;;
13475;SDS011;6810;63.824;20.288;2023-04-25T18:31:58;1.27;;;0.83;;
13475;SDS011;6810;63.824;20.288;2023-04-25T18:34:45;1.13;;;0.90;;
13475;SDS011;6810;63.824;20.288;2023-04-25T18:37:32;1.40;;;1.00;;
13475;SDS011;6810;63.824;20.288;2023-04-25T18:40:19;0.93;;;0.70;;
13475;SDS011;6810;63.824;20.288;2023-04-25T18:43:22;1.07;;;0.67;;
13475;SDS011;6810;63.824;20.288;2023-04-25T18:46:09;1.03;;;0.80;;
13475;SDS011;6810;63.824;20.288;2023-04-25T18:48:56;1.23;;;0.77;;
13475;SDS011;6810;63.824;20.288;2023-04-25T18:51:44;0.87;;;0.80;;
13475;SDS011;6810;63.824;20.288;2023-04-25T18:54:31;1.30;;;0.67;;
13475;SDS011;6810;63.824;20.288;2023-04-25T18:57:18;1.40;;;0.90;;
13475;SDS011;6810;63.824;20.288;2023-04-25T19:00:05;1.77;;;1.00;;
13475;SDS011;6810;63.824;20.288;2023-04-25T19:02:52;1.73;;;1.20;;
13475;SDS011;6810;63.824;20.288;2023-04-25T19:05:40;1.07;;;0.70;;
13475;SDS011;6810;63.824;20.288;2023-04-25T19:08:27;1.07;;;0.70;;
13475;SDS011;6810;63.824;20.288;2023-04-25T19:11:14;1.43;;;0.83;;
13475;SDS011;6810;63.824;20.288;2023-04-25T19:14:02;1.00;;;0.70;;
13475;SDS011;6810;63.824;20.288;2023-04-25T19:16:49;1.57;;;0.73;;
13475;SDS011;6810;63.824;20.288;2023-04-25T19:19:36;1.10;;;0.90;;
13475;SDS011;6810;63.824;20.288;2023-04-25T19:22:23;1.50;;;0.80;;
13475;SDS011;6810;63.824;20.288;2023-04-25T19:25:10;1.23;;;0.73;;
13475;SDS011;6810;63.824;20.288;2023-04-25T19:27:56;1.37;;;0.83;;
13475;SDS011;6810;63.824;20.288;2023-04-25T19:30:44;1.33;;;0.77;;
13475;SDS011;6810;63.824;20.288;2023-04-25T19:33:31;2.03;;;0.90;;
13475;SDS011;6810;63.824;20.288;2023-04-25T19:36:18;2.20;;;1.00;;
13475;SDS011;6810;63.824;20.288;2023-04-25T19:39:05;1.13;;;0.90;;
13475;SDS011;6810;63.824;20.288;2023-04-25T19:41:53;0.77;;;0.77;;
13475;SDS011;6810;63.824;20.288;2023-04-25T19:44:40;1.43;;;0.60;;
13475;SDS011;6810;63.824;20.288;2023-04-25T19:47:27;0.93;;;0.77;;
13475;SDS011;6810;63.824;20.288;2023-04-25T19:50:13;0.77;;;0.70;;
13475;SDS011;6810;63.824;20.288;2023-04-25T19:53:00;1.13;;;0.83;;
13475;SDS011;6810;63.824;20.288;2023-04-25T19:55:47;0.83;;;0.77;;
13475;SDS011;6810;63.824;20.288;2023-04-25T19:58:34;1.07;;;0.93;;
13475;SDS011;6810;63.824;20.288;2023-04-25T20:01:21;1.40;;;0.90;;
13475;SDS011;6810;63.824;20.288;2023-04-25T20:04:08;1.30;;;0.97;;
13475;SDS011;6810;63.824;20.288;2023-04-25T20:06:55;0.77;;;0.73;;
13475;SDS011;6810;63.824;20.288;2023-04-25T20:09:42;1.00;;;0.80;;
13475;SDS011;6810;63.824;20.288;2023-04-25T20:12:29;0.90;;;0.70;;
13475;SDS011;6810;63.824;20.288;2023-04-25T20:15:16;0.90;;;0.70;;
13475;SDS011;6810;63.824;20.288;2023-04-25T20:18:04;0.97;;;0.80;;
13475;SDS011;6810;63.824;20.288;2023-04-25T20:20:52;1.23;;;0.90;;
13475;SDS011;6810;63.824;20.288;2023-04-25T20:23:39;1.03;;;0.80;;
13475;SDS011;6810;63.824;20.288;2023-04-25T20:26:27;0.60;;;0.60;;
13475;SDS011;6810;63.824;20.288;2023-04-25T20:29:14;1.07;;;0.67;;
13475;SDS011;6810;63.824;20.288;2023-04-25T20:32:01;0.70;;;0.70;;
13475;SDS011;6810;63.824;20.288;2023-04-25T20:34:48;1.07;;;0.70;;
13475;SDS011;6810;63.824;20.288;2023-04-25T20:37:35;0.67;;;0.53;;
13475;SDS011;6810;63.824;20.288;2023-04-25T20:40:22;1.13;;;0.77;;
13475;SDS011;6810;63.824;20.288;2023-04-25T20:43:09;1.23;;;0.63;;
13475;SDS011;6810;63.824;20.288;2023-04-25T20:45:56;0.70;;;0.50;;
13475;SDS011;6810;63.824;20.288;2023-04-25T20:48:45;0.77;;;0.57;;
13475;SDS011;6810;63.824;20.288;2023-04-25T20:51:32;1.30;;;0.50;;
13475;SDS011;6810;63.824;20.288;2023-04-25T20:54:20;0.70;;;0.63;;
13475;SDS011;6810;63.824;20.288;2023-04-25T20:57:07;1.03;;;0.83;;
13475;SDS011;6810;63.824;20.288;2023-04-25T20:59:54;0.90;;;0.70;;
13475;SDS011;6810;63.824;20.288;2023-04-25T21:02:41;1.00;;;0.80;;
13475;SDS011;6810;63.824;20.288;2023-04-25T21:05:28;1.60;;;0.63;;
13475;SDS011;6810;63.824;20.288;2023-04-25T21:08:15;1.87;;;0.80;;
13475;SDS011;6810;63.824;20.288;2023-04-25T21:11:02;1.40;;;1.10;;
13475;SDS011;6810;63.824;20.288;2023-04-25T21:13:49;1.50;;;1.00;;
13475;SDS011;6810;63.824;20.288;2023-04-25T21:16:36;1.10;;;0.90;;
13475;SDS011;6810;63.824;20.288;2023-04-25T21:19:23;1.53;;;0.70;;
13475;SDS011;6810;63.824;20.288;2023-04-25T21:22:10;2.33;;;0.80;;
13475;SDS011;6810;63.824;20.288;2023-04-25T21:24:57;0.80;;;0.80;;
13475;SDS011;6810;63.824;20.288;2023-04-25T21:27:47;1.33;;;1.00;;
13475;SDS011;6810;63.824;20.288;2023-04-25T21:30:34;1.67;;;1.33;;
13475;SDS011;6810;63.824;20.288;2023-04-25T21:33:21;1.50;;;1.40;;
13475;SDS011;6810;63.824;20.288;2023-04-25T21:36:08;1.10;;;1.00;;
13475;SDS011;6810;63.824;20.288;2023-04-25T21:38:55;1.60;;;1.00;;
13475;SDS011;6810;63.824;20.288;2023-04-25T21:41:42;1.77;;;1.10;;
13475;SDS011;6810;63.824;20.288;2023-04-25T21:44:29;1.20;;;0.80;;
13475;SDS011;6810;63.824;20.288;2023-04-25T21:47:16;0.90;;;0.77;;
13475;SDS011;6810;63.824;20.288;2023-04-25T21:50:04;1.47;;;1.00;;